Time;durP1;ratioP1;P1;durP2;ratioP2;P2;SDS_P1;SDS_P2;PMS_P1;PMS_P2;Temp;Humidity;BMP_temperature;BMP_pressure;BME280_temperature;BME280_humidity;BME280_pressure;Samples;Min_cycle;Max_cycle;Signal;HPM_P1;HPM_P2
2022/03/22 00:02:01;;;;;;;8.27;6.47;;;9.60;91.80;;;;;;7385156;19;20477;-76
2022/03/22 00:04:27;;;;;;;9.93;6.57;;;9.50;91.70;;;;;;7385137;19;20126;-76
2022/03/22 00:06:53;;;;;;;10.33;6.67;;;9.40;92.00;;;;;;7384321;19;20118;-75
2022/03/22 00:09:18;;;;;;;10.73;6.50;;;9.40;92.10;;;;;;7385241;19;20131;-75
2022/03/22 00:11:44;;;;;;;9.67;6.93;;;9.50;92.00;;;;;;7384993;19;20186;-76
2022/03/22 00:14:10;;;;;;;9.90;6.63;;;9.50;91.80;;;;;;7384495;19;20148;-76
2022/03/22 00:16:38;;;;;;;13.33;6.57;;;9.50;91.60;;;;;;7384591;19;20143;-74
2022/03/22 00:19:04;;;;;;;10.43;6.23;;;9.50;91.70;;;;;;7384742;19;20131;-75
2022/03/22 00:21:30;;;;;;;9.63;6.40;;;9.50;91.50;;;;;;7386137;19;20196;-76
2022/03/22 00:23:56;;;;;;;8.60;6.37;;;9.50;91.20;;;;;;7384453;19;21219;-75
2022/03/22 00:26:21;;;;;;;13.27;6.27;;;9.40;91.10;;;;;;7385554;19;20786;-75
2022/03/22 00:28:47;;;;;;;9.63;6.60;;;9.40;91.30;;;;;;7384600;19;20134;-74
2022/03/22 00:31:15;;;;;;;9.47;5.67;;;9.40;91.40;;;;;;7383328;19;20143;-76
2022/03/22 00:33:41;;;;;;;9.57;6.13;;;9.40;91.40;;;;;;7384522;19;20135;-75
2022/03/22 00:36:06;;;;;;;8.90;5.93;;;9.40;91.40;;;;;;7383602;19;20142;-75
2022/03/22 00:38:32;;;;;;;11.47;6.43;;;9.30;91.50;;;;;;7384508;19;20139;-74
2022/03/22 00:40:58;;;;;;;11.93;6.47;;;9.30;91.20;;;;;;7384223;19;20163;-75
2022/03/22 00:43:24;;;;;;;15.23;6.87;;;9.30;91.20;;;;;;7384001;19;20132;-74
2022/03/22 00:45:50;;;;;;;10.07;6.47;;;9.10;91.20;;;;;;7383413;19;20198;-75
2022/03/22 00:48:16;;;;;;;10.57;6.97;;;9.00;91.20;;;;;;7386390;19;20127;-75
2022/03/22 00:50:47;;;;;;;11.47;6.73;;;8.90;91.40;;;;;;7384211;19;20127;-76
2022/03/22 00:53:18;;;;;;;10.13;6.33;;;8.90;91.60;;;;;;7388434;19;20139;-76
2022/03/22 00:55:45;;;;;;;9.13;5.70;;;9.10;91.40;;;;;;7383629;19;20228;-75
2022/03/22 00:58:11;;;;;;;9.50;6.37;;;9.20;91.50;;;;;;7386434;19;20135;-76
2022/03/22 01:00:38;;;;;;;8.97;6.10;;;9.30;91.70;;;;;;7385615;19;20130;-76
2022/03/22 01:03:04;;;;;;;8.77;5.83;;;9.30;91.70;;;;;;7383874;19;20577;-75
2022/03/22 01:05:31;;;;;;;9.73;6.23;;;9.30;91.50;;;;;;7383891;19;20133;-74
2022/03/22 01:08:05;;;;;;;12.47;6.80;;;9.20;91.60;;;;;;7382546;19;20206;-75
2022/03/22 01:10:33;;;;;;;8.63;5.97;;;9.10;91.60;;;;;;7383884;19;20123;-74
2022/03/22 01:12:59;;;;;;;10.27;6.57;;;8.80;91.90;;;;;;7382766;19;20420;-76
2022/03/22 01:15:32;;;;;;;14.07;6.17;;;8.90;92.20;;;;;;7381504;19;20126;-76
2022/03/22 01:18:05;;;;;;;11.70;7.23;;;9.00;92.20;;;;;;7383837;19;20218;-74
2022/03/22 01:20:33;;;;;;;8.93;6.00;;;9.00;92.40;;;;;;7384991;19;20140;-76
2022/03/22 01:23:00;;;;;;;9.67;6.27;;;8.80;92.60;;;;;;7384021;19;20180;-76
2022/03/22 01:25:30;;;;;;;11.70;6.63;;;8.80;92.80;;;;;;7384528;19;20135;-75
2022/03/22 01:27:57;;;;;;;11.77;7.10;;;8.50;93.10;;;;;;7384784;19;20171;-75
2022/03/22 01:30:24;;;;;;;9.93;7.10;;;8.60;93.10;;;;;;7389949;19;20731;-76
2022/03/22 01:32:52;;;;;;;10.73;6.70;;;8.70;93.30;;;;;;7391102;19;20162;-74
2022/03/22 01:35:19;;;;;;;9.83;6.80;;;8.70;93.30;;;;;;7389367;19;20135;-75
2022/03/22 01:37:48;;;;;;;9.90;6.43;;;8.70;93.40;;;;;;7390779;19;20163;-76
2022/03/22 01:40:16;;;;;;;9.80;6.43;;;8.60;93.60;;;;;;7391851;19;20725;-76
2022/03/22 01:42:42;;;;;;;15.17;6.87;;;8.30;93.60;;;;;;7391402;19;20143;-74
2022/03/22 01:45:09;;;;;;;10.63;6.93;;;8.10;94.00;;;;;;7388824;19;20165;-75
2022/03/22 01:47:40;;;;;;;12.33;7.47;;;8.10;94.40;;;;;;7389739;19;20628;-75
2022/03/22 01:50:09;;;;;;;12.63;7.70;;;8.30;94.80;;;;;;7389668;19;20146;-74
2022/03/22 01:52:39;;;;;;;14.20;7.00;;;8.50;94.70;;;;;;7393186;19;20139;-75
2022/03/22 01:55:07;;;;;;;13.53;7.60;;;8.50;94.60;;;;;;7387513;19;20135;-76
2022/03/22 01:57:33;;;;;;;12.90;7.83;;;8.40;95.20;;;;;;7392808;19;20127;-75
2022/03/22 02:00:04;;;;;;;13.93;8.00;;;8.50;95.20;;;;;;7390359;19;20130;-76
2022/03/22 02:08:02;;;;;;;12.03;7.73;;;8.50;95.30;;;;;;7388003;19;20160;-75
2022/03/22 02:10:28;;;;;;;17.07;8.50;;;8.50;95.30;;;;;;7390233;19;20521;-74
2022/03/22 02:12:54;;;;;;;13.13;7.60;;;8.50;95.50;;;;;;7388955;19;20126;-74
2022/03/22 02:15:19;;;;;;;14.17;7.80;;;8.40;95.60;;;;;;7386231;19;20473;-75
2022/03/22 02:17:46;;;;;;;13.80;7.87;;;8.40;95.90;;;;;;7387455;19;20586;-73
2022/03/22 02:20:15;;;;;;;13.63;7.63;;;8.40;96.10;;;;;;7390622;19;20525;-75
2022/03/22 02:22:54;;;;;;;13.37;8.87;;;8.30;96.30;;;;;;7388920;19;20138;-74
2022/03/22 02:25:21;;;;;;;12.57;7.77;;;8.10;96.40;;;;;;7388596;19;20380;-75
2022/03/22 02:27:48;;;;;;;13.47;7.53;;;8.00;96.40;;;;;;7388529;19;20139;-75
2022/03/22 02:30:15;;;;;;;14.60;8.17;;;7.90;96.60;;;;;;7388361;19;20138;-74
2022/03/22 02:32:51;;;;;;;13.83;8.27;;;8.00;96.60;;;;;;7388249;19;20679;-74
2022/03/22 02:35:18;;;;;;;11.70;7.60;;;8.10;96.80;;;;;;7387730;19;20134;-75
2022/03/22 02:37:44;;;;;;;12.63;8.00;;;8.10;96.80;;;;;;7387838;19;20131;-74
2022/03/22 02:40:13;;;;;;;11.43;6.67;;;8.10;96.90;;;;;;7390090;19;20131;-75
2022/03/22 02:42:42;;;;;;;11.93;7.53;;;8.00;96.90;;;;;;7391177;19;20127;-74
2022/03/22 02:45:09;;;;;;;13.90;8.03;;;7.90;96.50;;;;;;7391630;19;20150;-76
2022/03/22 02:47:34;;;;;;;14.90;8.07;;;8.00;96.40;;;;;;7393063;19;20816;-74
2022/03/22 02:50:00;;;;;;;11.40;7.63;;;8.00;96.60;;;;;;7389115;19;20865;-74
2022/03/22 02:52:27;;;;;;;9.93;6.70;;;8.00;96.80;;;;;;7389573;19;20165;-74
2022/03/22 02:54:53;;;;;;;10.83;7.07;;;8.10;95.70;;;;;;7386702;19;20138;-74
2022/03/22 02:57:18;;;;;;;11.10;7.23;;;8.10;95.70;;;;;;7388580;19;20597;-74
2022/03/22 02:59:44;;;;;;;13.77;7.63;;;8.00;95.80;;;;;;7390241;19;20139;-74
2022/03/22 03:02:10;;;;;;;10.43;7.23;;;8.00;96.20;;;;;;7387251;19;20134;-75
2022/03/22 03:04:35;;;;;;;11.10;7.73;;;8.00;96.20;;;;;;7389355;19;20123;-75
2022/03/22 03:07:01;;;;;;;10.50;7.70;;;8.00;96.20;;;;;;7388271;19;20138;-75
2022/03/22 03:09:27;;;;;;;12.63;7.63;;;7.70;96.60;;;;;;7388911;19;20616;-73
2022/03/22 03:11:53;;;;;;;12.40;7.30;;;7.60;96.80;;;;;;7387291;19;20646;-76
2022/03/22 03:17:02;;;;;;;9.53;7.40;;;7.20;97.60;;;;;;7390929;19;20165;-75
2022/03/22 03:19:28;;;;;;;12.23;8.00;;;7.00;97.70;;;;;;7386447;19;20788;-74
2022/03/22 03:21:54;;;;;;;11.27;6.90;;;6.70;98.30;;;;;;7386270;19;20127;-75
2022/03/22 03:24:20;;;;;;;12.77;8.03;;;6.80;98.60;;;;;;7387736;19;20198;-74
2022/03/22 03:26:45;;;;;;;11.67;7.30;;;7.20;98.00;;;;;;7387340;19;20137;-75
2022/03/22 03:29:11;;;;;;;14.43;8.17;;;7.10;97.70;;;;;;7386618;19;20142;-75
2022/03/22 03:31:37;;;;;;;13.03;6.87;;;7.00;98.30;;;;;;7387711;19;20167;-75
2022/03/22 03:34:03;;;;;;;9.40;6.60;;;7.00;98.10;;;;;;7385562;19;20130;-74
2022/03/22 03:36:28;;;;;;;11.40;7.00;;;7.10;98.10;;;;;;7386679;19;20147;-74
2022/03/22 03:38:54;;;;;;;11.53;7.20;;;7.40;97.80;;;;;;7386198;19;20142;-74
2022/03/22 03:47:03;;;;;;;10.23;7.10;;;7.40;97.80;;;;;;7387706;19;20172;-76
2022/03/22 03:47:09;;;;;;;10.97;7.50;;;7.50;97.70;;;;;;7385520;19;20130;-75
2022/03/22 03:49:37;;;;;;;16.93;8.37;;;7.60;97.70;;;;;;7386379;19;20478;-75
2022/03/22 03:52:10;;;;;;;13.57;7.80;;;7.70;97.50;;;;;;7386747;19;20134;-74
2022/03/22 03:54:37;;;;;;;14.30;7.77;;;7.70;97.60;;;;;;7386242;19;20620;-76
2022/03/22 03:57:04;;;;;;;11.73;7.47;;;7.70;97.60;;;;;;7385586;19;20129;-75
2022/03/22 03:59:29;;;;;;;13.03;7.70;;;7.40;97.50;;;;;;7388647;19;20138;-73
2022/03/22 04:01:55;;;;;;;10.53;6.90;;;7.20;98.30;;;;;;7387842;19;20131;-74
2022/03/22 04:04:22;;;;;;;11.93;6.97;;;7.00;98.50;;;;;;7389425;19;20135;-76
2022/03/22 04:06:47;;;;;;;14.93;7.40;;;6.90;98.80;;;;;;7386132;19;20134;-77
2022/03/22 04:09:16;;;;;;;14.77;8.63;;;6.80;99.00;;;;;;7387024;19;20147;-73
2022/03/22 04:11:43;;;;;;;13.17;7.70;;;7.20;98.80;;;;;;7384686;19;20134;-75
2022/03/22 04:14:10;;;;;;;13.93;8.87;;;7.40;98.30;;;;;;7385085;19;20470;-74
2022/03/22 04:16:36;;;;;;;13.33;8.27;;;7.50;98.00;;;;;;7388119;19;20131;-75
2022/03/22 04:19:08;;;;;;;14.73;8.20;;;7.30;98.00;;;;;;7385217;19;20142;-77
2022/03/22 04:21:38;;;;;;;13.63;8.20;;;7.40;98.20;;;;;;7384679;19;20986;-75
2022/03/22 04:24:06;;;;;;;12.97;7.47;;;7.40;98.00;;;;;;7384923;19;20123;-76
2022/03/22 04:26:40;;;;;;;12.47;8.10;;;7.50;98.00;;;;;;7385416;19;20141;-75
2022/03/22 04:34:43;;;;;;;12.73;7.93;;;7.40;98.20;;;;;;7383812;19;20134;-75
2022/03/22 04:37:13;;;;;;;13.03;8.30;;;7.50;97.90;;;;;;7382200;19;20155;-75
2022/03/22 04:39:41;;;;;;;11.83;7.57;;;7.50;97.50;;;;;;7388358;19;20630;-74
2022/03/22 04:42:07;;;;;;;12.73;8.37;;;7.40;97.30;;;;;;7386005;19;20232;-75
2022/03/22 04:44:34;;;;;;;14.83;8.70;;;7.30;97.30;;;;;;7384339;19;20567;-75
2022/03/22 04:47:03;;;;;;;12.03;7.80;;;7.40;97.20;;;;;;7385508;19;20250;-74
2022/03/22 04:49:29;;;;;;;12.73;7.93;;;7.40;97.30;;;;;;7384012;19;20138;-75
2022/03/22 04:57:24;;;;;;;13.13;7.93;;;7.50;96.90;;;;;;7384858;19;20137;-76
2022/03/22 04:59:50;;;;;;;14.80;7.60;;;7.40;96.90;;;;;;7384225;19;20130;-77
2022/03/22 05:02:16;;;;;;;14.13;8.07;;;7.40;96.90;;;;;;7383380;19;20218;-77
2022/03/22 05:04:42;;;;;;;16.50;8.53;;;7.40;97.00;;;;;;7392380;19;20134;-75
2022/03/22 05:07:09;;;;;;;14.43;7.57;;;7.30;96.90;;;;;;7393346;19;20130;-75
2022/03/22 05:09:35;;;;;;;16.47;7.87;;;7.30;97.10;;;;;;7392420;19;20598;-74
2022/03/22 05:12:02;;;;;;;13.37;7.70;;;7.10;97.50;;;;;;7391582;19;20138;-74
2022/03/22 05:14:28;;;;;;;13.13;8.37;;;6.80;97.60;;;;;;7389980;19;20222;-74
2022/03/22 05:16:56;;;;;;;13.97;8.03;;;6.50;98.50;;;;;;7392044;19;20139;-75
2022/03/22 05:19:22;;;;;;;16.83;8.10;;;6.30;99.00;;;;;;7390724;19;20138;-73
2022/03/22 05:21:48;;;;;;;14.53;8.50;;;6.30;99.50;;;;;;7392838;19;20155;-75
2022/03/22 05:24:13;;;;;;;14.87;8.20;;;6.30;99.30;;;;;;7390563;19;20479;-75
2022/03/22 05:26:40;;;;;;;12.37;7.60;;;6.70;99.10;;;;;;7389525;19;20142;-73
2022/03/22 05:29:05;;;;;;;12.33;7.70;;;6.80;98.60;;;;;;7388311;19;20151;-74
2022/03/22 05:31:32;;;;;;;12.47;8.20;;;7.00;98.00;;;;;;7389558;19;20486;-75
2022/03/22 05:34:01;;;;;;;13.77;8.27;;;6.90;98.20;;;;;;7392417;19;20141;-75
2022/03/22 05:36:27;;;;;;;12.90;7.77;;;7.00;98.00;;;;;;7389366;19;20129;-75
2022/03/22 05:38:54;;;;;;;13.43;8.33;;;7.20;97.60;;;;;;7393047;19;20131;-76
2022/03/22 05:41:20;;;;;;;11.30;7.50;;;7.20;97.60;;;;;;7389991;19;20568;-75
2022/03/22 05:43:47;;;;;;;14.60;7.63;;;6.80;97.80;;;;;;7390411;19;20629;-76
2022/03/22 05:46:16;;;;;;;12.70;7.83;;;6.90;98.20;;;;;;7389299;19;20134;-74
2022/03/22 05:48:43;;;;;;;14.03;7.53;;;6.50;99.00;;;;;;7391132;19;20137;-73
2022/03/22 05:51:09;;;;;;;11.33;7.63;;;6.70;99.10;;;;;;7392798;19;20163;-76
2022/03/22 05:53:35;;;;;;;14.10;8.30;;;6.60;98.90;;;;;;7388685;19;20126;-75
2022/03/22 05:56:00;;;;;;;13.93;8.00;;;6.70;99.00;;;;;;7386223;19;20137;-75
2022/03/22 05:58:26;;;;;;;14.00;8.47;;;6.80;98.80;;;;;;7389644;19;20130;-74
2022/03/22 06:00:52;;;;;;;13.20;7.40;;;6.90;98.70;;;;;;7391197;19;20122;-75
2022/03/22 06:03:18;;;;;;;14.43;8.93;;;7.20;97.90;;;;;;7391650;19;20127;-75
2022/03/22 06:05:44;;;;;;;13.97;8.40;;;7.20;97.70;;;;;;7390340;19;20190;-74
2022/03/22 06:08:10;;;;;;;15.00;8.87;;;7.40;97.70;;;;;;7391980;19;20130;-74
2022/03/22 06:10:35;;;;;;;13.57;8.10;;;6.80;98.10;;;;;;7390877;19;20625;-76
2022/03/22 06:13:01;;;;;;;15.07;9.63;;;6.80;98.50;;;;;;7388661;19;20133;-75
2022/03/22 06:15:30;;;;;;;12.83;7.97;;;6.80;98.20;;;;;;7387906;19;20127;-74
2022/03/22 06:18:01;;;;;;;13.57;8.20;;;7.00;98.10;;;;;;7388432;19;20126;-74
2022/03/22 06:20:32;;;;;;;13.57;7.83;;;6.90;97.70;;;;;;7389074;19;20168;-73
2022/03/22 06:23:00;;;;;;;11.20;7.67;;;7.00;97.70;;;;;;7390085;19;20119;-75
2022/03/22 06:25:26;;;;;;;12.87;7.70;;;7.10;97.50;;;;;;7387627;19;20131;-74
2022/03/22 06:27:53;;;;;;;13.00;6.87;;;7.10;97.10;;;;;;7388953;19;20134;-74
2022/03/22 06:30:20;;;;;;;11.23;7.30;;;7.10;97.00;;;;;;7388933;19;20137;-74
2022/03/22 06:32:52;;;;;;;13.93;8.13;;;7.20;96.90;;;;;;7387748;19;20146;-74
2022/03/22 06:35:24;;;;;;;12.60;8.17;;;7.20;96.90;;;;;;7388110;19;20134;-74
2022/03/22 06:37:51;;;;;;;16.87;9.50;;;7.00;97.20;;;;;;7389581;19;20131;-75
2022/03/22 06:40:19;;;;;;;12.60;7.83;;;7.20;97.10;;;;;;7393494;19;20134;-75
2022/03/22 06:42:45;;;;;;;15.43;8.47;;;7.20;97.10;;;;;;7388285;19;20689;-74
2022/03/22 06:45:11;;;;;;;14.17;8.20;;;7.40;96.90;;;;;;7388109;19;20146;-75
2022/03/22 06:47:41;;;;;;;10.63;7.03;;;7.30;96.80;;;;;;7388190;19;20119;-74
2022/03/22 06:50:09;;;;;;;12.67;7.70;;;7.40;96.90;;;;;;7389153;19;20130;-74
2022/03/22 06:52:35;;;;;;;16.60;8.30;;;7.50;96.70;;;;;;7389080;19;20186;-74
2022/03/22 06:55:01;;;;;;;14.33;8.53;;;7.50;96.20;;;;;;7388414;19;20131;-75
2022/03/22 06:57:28;;;;;;;14.77;7.70;;;7.60;96.10;;;;;;7388174;19;20115;-75
2022/03/22 07:00:00;;;;;;;14.43;8.70;;;7.60;96.20;;;;;;7388130;19;20137;-75
2022/03/22 07:02:27;;;;;;;15.20;8.93;;;7.80;96.00;;;;;;7388392;19;20127;-75
2022/03/22 07:04:52;;;;;;;14.50;9.07;;;7.80;96.10;;;;;;7388553;19;20150;-75
2022/03/22 07:07:18;;;;;;;14.90;9.00;;;7.80;96.50;;;;;;7389727;19;20126;-75
2022/03/22 07:09:45;;;;;;;13.73;8.97;;;7.80;96.70;;;;;;7386823;19;20127;-75
2022/03/22 07:12:13;;;;;;;14.90;9.23;;;7.80;96.70;;;;;;7388538;19;20178;-75
2022/03/22 07:14:40;;;;;;;13.73;8.80;;;7.80;96.70;;;;;;7385584;19;20155;-75
2022/03/22 07:17:08;;;;;;;16.63;8.80;;;7.70;96.70;;;;;;7387642;19;20194;-76
2022/03/22 07:19:34;;;;;;;15.20;9.20;;;7.60;96.70;;;;;;7385990;19;20216;-75
2022/03/22 07:22:01;;;;;;;18.67;8.80;;;7.60;96.80;;;;;;7386351;19;20155;-75
2022/03/22 07:24:27;;;;;;;16.30;8.90;;;7.50;96.90;;;;;;7387838;19;20144;-75
2022/03/22 07:26:53;;;;;;;14.43;8.13;;;7.60;96.90;;;;;;7385107;19;20130;-74
2022/03/22 07:29:19;;;;;;;12.30;8.40;;;7.80;96.40;;;;;;7386767;19;20167;-74
2022/03/22 07:31:44;;;;;;;14.17;8.87;;;7.90;96.10;;;;;;7383721;19;20147;-75
2022/03/22 07:34:15;;;;;;;16.17;8.60;;;8.00;96.00;;;;;;7387092;19;20131;-74
2022/03/22 07:36:41;;;;;;;12.00;8.37;;;8.10;95.90;;;;;;7385220;19;20146;-75
2022/03/22 07:39:09;;;;;;;13.47;8.37;;;8.20;95.60;;;;;;7389131;19;20147;-76
2022/03/22 07:41:36;;;;;;;13.07;8.07;;;8.20;95.70;;;;;;7384953;19;20210;-74
2022/03/22 07:44:03;;;;;;;14.03;8.80;;;8.30;95.40;;;;;;7385815;19;20131;-73
2022/03/22 07:46:30;;;;;;;15.20;8.40;;;8.30;95.10;;;;;;7386550;19;20157;-75
2022/03/22 07:52:58;;;;;;;14.53;9.03;;;8.40;95.20;;;;;;7387315;19;20130;-76
2022/03/22 07:54:26;;;;;;;15.27;8.97;;;8.50;94.90;;;;;;7386784;19;20138;-76
2022/03/22 07:56:51;;;;;;;14.57;8.77;;;8.60;94.80;;;;;;7385385;19;20511;-75
2022/03/22 07:59:17;;;;;;;13.80;7.97;;;8.80;94.60;;;;;;7385399;19;20159;-74
2022/03/22 08:01:43;;;;;;;15.87;8.63;;;8.90;94.40;;;;;;7384531;19;20130;-76
2022/03/22 08:04:08;;;;;;;11.13;8.00;;;9.00;94.30;;;;;;7386714;19;20575;-76
2022/03/22 08:06:34;;;;;;;12.83;8.40;;;9.00;94.30;;;;;;7385091;19;20143;-75
2022/03/22 08:09:00;;;;;;;12.90;8.40;;;9.10;94.10;;;;;;7387015;19;20131;-76
2022/03/22 08:11:26;;;;;;;13.77;8.13;;;9.20;94.00;;;;;;7386064;19;20130;-76
2022/03/22 08:13:51;;;;;;;14.07;8.10;;;8.90;94.10;;;;;;7386716;19;20143;-76
2022/03/22 08:16:17;;;;;;;13.93;8.03;;;8.90;94.60;;;;;;7382809;19;20134;-74
2022/03/22 08:18:43;;;;;;;14.60;8.13;;;9.10;94.40;;;;;;7385051;19;20213;-75
2022/03/22 08:21:08;;;;;;;16.40;8.37;;;9.10;94.60;;;;;;7384718;19;20130;-77
2022/03/22 08:23:34;;;;;;;11.57;8.07;;;9.40;94.10;;;;;;7384973;19;20209;-75
2022/03/22 08:26:00;;;;;;;12.23;8.23;;;9.60;94.00;;;;;;7386991;19;20146;-75
2022/03/22 08:28:26;;;;;;;14.77;8.63;;;9.70;93.50;;;;;;7384836;19;20634;-77
2022/03/22 08:30:52;;;;;;;14.57;8.63;;;9.70;93.50;;;;;;7384277;19;20131;-75
2022/03/22 08:33:18;;;;;;;12.40;8.10;;;10.00;93.40;;;;;;7381064;19;20143;-74
2022/03/22 08:35:46;;;;;;;13.57;8.53;;;10.00;93.30;;;;;;7382155;19;20134;-75
2022/03/22 08:38:20;;;;;;;13.50;8.57;;;10.10;93.20;;;;;;7392993;19;20490;-76
2022/03/22 08:40:49;;;;;;;13.20;9.00;;;10.20;93.10;;;;;;7396205;19;20146;-75
2022/03/22 08:43:15;;;;;;;13.80;8.40;;;10.30;93.00;;;;;;7394089;19;20240;-76
2022/03/22 08:45:41;;;;;;;14.60;8.33;;;10.40;92.90;;;;;;7393633;19;20137;-75
2022/03/22 08:48:11;;;;;;;13.73;8.97;;;10.50;93.20;;;;;;7392556;19;20123;-77
2022/03/22 08:50:39;;;;;;;14.00;9.10;;;10.80;92.80;;;;;;7400547;19;20127;-76
2022/03/22 08:53:06;;;;;;;14.57;8.77;;;11.00;92.20;;;;;;7391007;19;20270;-76
2022/03/22 08:55:32;;;;;;;19.03;8.93;;;11.00;92.50;;;;;;7389463;19;20130;-73
2022/03/22 08:58:05;;;;;;;16.07;8.97;;;11.10;91.80;;;;;;7389933;19;20130;-76
2022/03/22 09:00:32;;;;;;;16.50;8.60;;;11.10;92.00;;;;;;7390981;19;20491;-73
2022/03/22 09:03:01;;;;;;;15.33;8.77;;;11.30;91.80;;;;;;7394552;19;20154;-76
2022/03/22 09:08:13;;;;;;;15.53;9.50;;;11.40;91.80;;;;;;7393960;19;20142;-77
2022/03/22 09:10:39;;;;;;;14.67;9.77;;;11.40;91.80;;;;;;7390327;19;20131;-74
2022/03/22 09:13:07;;;;;;;15.80;9.60;;;11.40;91.80;;;;;;7392568;19;20119;-76
2022/03/22 09:15:39;;;;;;;16.47;9.47;;;11.50;91.40;;;;;;7388601;19;20126;-76
2022/03/22 09:18:13;;;;;;;15.17;9.83;;;11.30;91.70;;;;;;7390836;19;20660;-75
2022/03/22 09:20:40;;;;;;;15.77;9.37;;;11.40;91.90;;;;;;7390997;19;20137;-75
2022/03/22 09:23:06;;;;;;;15.70;9.33;;;11.60;91.60;;;;;;7390506;19;20474;-76
2022/03/22 09:25:33;;;;;;;13.93;9.50;;;11.70;91.40;;;;;;7392178;19;20214;-75
2022/03/22 09:28:00;;;;;;;15.10;9.50;;;11.90;91.40;;;;;;7390055;19;20142;-75
2022/03/22 09:30:26;;;;;;;13.77;9.20;;;11.90;91.20;;;;;;7390554;19;20133;-76
2022/03/22 09:32:52;;;;;;;18.60;10.37;;;11.90;91.30;;;;;;7387874;19;20151;-76
2022/03/22 09:35:19;;;;;;;15.00;8.77;;;11.90;91.60;;;;;;7388719;19;20529;-75
2022/03/22 09:37:51;;;;;;;14.40;9.23;;;12.10;91.30;;;;;;7389795;19;20127;-75
2022/03/22 09:40:21;;;;;;;14.20;9.63;;;12.10;91.20;;;;;;7394996;19;20165;-74
2022/03/22 09:42:48;;;;;;;16.33;9.87;;;12.10;91.20;;;;;;7388615;19;20135;-75
2022/03/22 09:45:19;;;;;;;14.63;9.13;;;12.20;91.50;;;;;;7389368;19;20138;-75
2022/03/22 09:47:46;;;;;;;14.97;9.50;;;12.30;91.50;;;;;;7388676;19;20194;-76
2022/03/22 09:50:16;;;;;;;15.63;9.67;;;12.50;91.50;;;;;;7389318;19;20134;-76
2022/03/22 09:52:42;;;;;;;15.67;9.20;;;12.60;91.30;;;;;;7389471;19;20135;-76
2022/03/22 09:55:11;;;;;;;15.50;9.90;;;12.70;91.90;;;;;;7389449;19;20328;-77
2022/03/22 09:57:37;;;;;;;15.47;9.93;;;12.90;90.70;;;;;;7388788;19;20530;-77
2022/03/22 10:00:08;;;;;;;19.37;10.27;;;13.00;90.90;;;;;;7388876;19;20131;-76
2022/03/22 10:02:38;;;;;;;17.43;10.03;;;12.90;90.50;;;;;;7390056;19;20127;-78
2022/03/22 10:05:04;;;;;;;14.13;9.53;;;13.00;90.60;;;;;;7391225;19;20214;-75
2022/03/22 10:07:30;;;;;;;15.43;9.50;;;13.00;90.00;;;;;;7390632;19;20126;-74
2022/03/22 10:10:02;;;;;;;19.33;10.10;;;12.90;90.10;;;;;;7390070;19;20137;-75
2022/03/22 10:12:35;;;;;;;16.73;9.63;;;13.10;90.00;;;;;;7390755;19;20118;-76
2022/03/22 10:15:11;;;;;;;14.70;9.57;;;13.10;89.70;;;;;;7389739;19;20130;-74
2022/03/22 10:17:37;;;;;;;18.33;9.97;;;13.10;89.50;;;;;;7387418;19;20646;-74
2022/03/22 10:20:05;;;;;;;18.30;9.40;;;13.10;90.00;;;;;;7390145;19;20210;-75
2022/03/22 10:22:34;;;;;;;18.80;9.83;;;13.30;89.20;;;;;;7388729;19;20135;-75
2022/03/22 10:25:03;;;;;;;14.50;9.13;;;13.40;88.60;;;;;;7388558;19;20159;-75
2022/03/22 10:27:32;;;;;;;13.67;9.63;;;13.40;88.40;;;;;;7391235;19;20635;-76
2022/03/22 10:30:01;;;;;;;16.20;9.60;;;13.40;87.60;;;;;;7390650;19;20130;-78
2022/03/22 10:32:41;;;;;;;14.10;9.23;;;13.50;86.80;;;;;;7386439;19;20158;-77
2022/03/22 10:35:12;;;;;;;13.33;9.20;;;13.50;85.40;;;;;;7387739;19;20127;-76
2022/03/22 10:37:41;;;;;;;13.40;7.93;;;13.50;85.10;;;;;;7386951;19;20198;-75
2022/03/22 10:40:40;;;;;;;13.23;8.80;;;13.60;84.80;;;;;;7392520;19;20139;-77
2022/03/22 10:43:09;;;;;;;15.65;8.55;;;13.60;84.70;;;;;;7388262;19;20557;-78
2022/03/22 10:45:59;;;;;;;14.27;9.13;;;13.80;84.30;;;;;;7388181;19;20610;-76
2022/03/22 10:48:37;;;;;;;12.90;8.93;;;14.00;84.80;;;;;;7392161;19;20233;-75
2022/03/22 10:51:05;;;;;;;15.30;8.80;;;13.80;83.70;;;;;;7391291;19;20138;-78
2022/03/22 10:53:34;;;;;;;15.67;9.03;;;13.70;83.40;;;;;;7389003;19;20159;-76
2022/03/22 10:56:02;;;;;;;14.93;8.73;;;13.70;82.60;;;;;;7387111;19;20152;-77
2022/03/22 10:58:30;;;;;;;11.57;8.27;;;13.80;82.80;;;;;;7388672;19;20134;-78
2022/03/22 11:00:59;;;;;;;16.03;8.73;;;13.90;81.60;;;;;;7389103;19;20159;-76
2022/03/22 11:03:29;;;;;;;12.23;8.63;;;14.10;81.50;;;;;;7387190;19;20216;-75
2022/03/22 11:05:57;;;;;;;18.05;9.57;;;14.20;80.20;;;;;;7388653;19;20138;-77
2022/03/22 11:08:27;;;;;;;13.47;9.00;;;14.20;79.80;;;;;;7393254;19;20134;-78
2022/03/22 11:10:54;;;;;;;14.73;8.57;;;14.30;82.50;;;;;;7387107;19;20156;-77
2022/03/22 11:13:21;;;;;;;15.27;8.87;;;14.50;79.30;;;;;;7389421;19;20131;-75
2022/03/22 11:15:48;;;;;;;14.27;8.73;;;14.60;78.50;;;;;;7385848;19;20505;-77
2022/03/22 11:18:16;;;;;;;13.97;8.03;;;14.70;78.50;;;;;;7387473;19;20138;-75
2022/03/22 11:20:56;;;;;;;11.52;8.20;;;14.80;78.80;;;;;;7386568;19;20134;-78
2022/03/22 11:23:25;;;;;;;13.10;8.65;;;15.00;78.30;;;;;;7386659;19;20770;-76
2022/03/22 11:25:51;;;;;;;10.68;8.23;;;15.10;77.50;;;;;;7384895;19;20186;-76
2022/03/22 11:28:22;;;;;;;13.13;8.45;;;15.10;77.90;;;;;;7387455;19;20159;-78
2022/03/22 11:30:50;;;;;;;14.27;8.95;;;15.20;78.00;;;;;;7385487;19;20140;-77
2022/03/22 11:36:13;;;;;;;14.10;9.27;;;15.40;76.20;;;;;;7385795;19;20216;-75
2022/03/22 11:38:41;;;;;;;13.30;8.07;;;15.50;74.60;;;;;;7387552;19;20127;-76
2022/03/22 11:44:14;;;;;;;10.10;7.63;;;15.60;74.30;;;;;;7387038;19;20122;-74
2022/03/22 11:46:41;;;;;;;12.00;7.72;;;15.50;74.40;;;;;;7387522;19;20154;-75
2022/03/22 11:49:25;;;;;;;13.15;8.30;;;15.50;74.50;;;;;;7386941;19;20130;-75
2022/03/22 11:51:54;;;;;;;11.20;7.80;;;15.80;73.70;;;;;;7389656;19;20143;-75
2022/03/22 11:54:21;;;;;;;10.85;8.18;;;15.70;73.60;;;;;;7386212;19;20147;-76
2022/03/22 11:56:53;;;;;;;12.65;8.55;;;16.00;72.80;;;;;;7384213;19;20607;-77
2022/03/22 11:59:20;;;;;;;12.45;8.20;;;16.10;71.50;;;;;;7386040;19;20126;-76
2022/03/22 12:01:59;;;;;;;11.77;8.60;;;16.00;71.60;;;;;;7386563;19;20126;-77
2022/03/22 12:04:43;;;;;;;14.23;9.18;;;16.00;71.60;;;;;;7385352;19;20138;-76
2022/03/22 12:07:11;;;;;;;12.32;8.15;;;15.90;71.90;;;;;;7388092;19;20574;-77
2022/03/22 12:09:42;;;;;;;10.75;8.50;;;15.90;72.80;;;;;;7387661;19;20130;-76
2022/03/22 12:12:10;;;;;;;15.07;8.98;;;15.90;72.60;;;;;;7382386;19;20573;-76
2022/03/22 12:14:37;;;;;;;13.00;8.68;;;15.90;72.90;;;;;;7386754;19;20123;-76
2022/03/22 12:17:04;;;;;;;16.05;9.93;;;15.90;73.60;;;;;;7386245;19;20127;-75
2022/03/22 12:19:32;;;;;;;15.52;9.38;;;16.10;73.70;;;;;;7386148;19;20176;-75
2022/03/22 12:22:00;;;;;;;13.00;8.95;;;16.10;75.10;;;;;;7386458;19;20147;-78
2022/03/22 12:24:33;;;;;;;14.93;9.35;;;16.40;74.10;;;;;;7384797;19;20134;-76
2022/03/22 12:27:03;;;;;;;14.05;9.27;;;16.40;74.10;;;;;;7384932;19;20123;-75
2022/03/22 12:29:29;;;;;;;12.07;9.35;;;16.40;74.50;;;;;;7381965;19;20815;-77
2022/03/22 12:32:06;;;;;;;12.38;9.23;;;16.40;75.00;;;;;;7384565;19;20151;-76
2022/03/22 12:34:35;;;;;;;14.50;9.57;;;16.50;74.50;;;;;;7385740;19;20467;-77
2022/03/22 12:37:01;;;;;;;13.25;9.88;;;16.50;74.00;;;;;;7385799;19;20190;-76
2022/03/22 12:39:27;;;;;;;13.50;9.57;;;16.50;74.20;;;;;;7387445;19;20488;-75
2022/03/22 12:41:57;;;;;;;14.95;10.07;;;16.60;73.90;;;;;;7383308;19;20126;-76
2022/03/22 12:44:25;;;;;;;15.90;9.52;;;16.60;73.50;;;;;;7385288;19;20154;-75
2022/03/22 12:46:53;;;;;;;11.82;8.80;;;16.60;72.80;;;;;;7384336;19;20235;-78
2022/03/22 12:49:21;;;;;;;17.52;9.50;;;16.60;73.20;;;;;;7385065;19;20242;-76
2022/03/22 12:51:48;;;;;;;13.55;9.35;;;16.70;73.50;;;;;;7388198;19;20846;-77
2022/03/22 12:54:17;;;;;;;15.48;8.77;;;16.60;73.30;;;;;;7383476;19;20135;-77
2022/03/22 12:56:48;;;;;;;11.85;8.75;;;16.90;72.90;;;;;;7382840;19;20127;-75
2022/03/22 12:59:24;;;;;;;12.05;8.57;;;17.00;72.50;;;;;;7384262;19;20143;-76
2022/03/22 13:01:58;;;;;;;11.68;8.85;;;17.00;71.60;;;;;;7383856;19;20594;-75
2022/03/22 13:04:30;;;;;;;14.05;8.73;;;16.90;72.20;;;;;;7383866;19;20374;-76
2022/03/22 13:07:04;;;;;;;11.38;8.63;;;17.20;72.10;;;;;;7383653;19;20142;-74
2022/03/22 13:12:16;;;;;;;14.52;9.45;;;17.20;71.80;;;;;;7385734;19;20155;-77
2022/03/22 13:15:04;;;;;;;12.35;8.40;;;17.20;71.40;;;;;;7384489;19;20150;-77
2022/03/22 13:17:48;;;;;;;14.30;9.63;;;17.20;71.20;;;;;;7382732;19;20134;-75
2022/03/22 13:20:17;;;;;;;12.43;8.95;;;17.20;70.90;;;;;;7383446;19;20309;-76
2022/03/22 13:22:55;;;;;;;14.13;8.88;;;17.20;70.60;;;;;;7385551;19;20138;-76
2022/03/22 13:25:26;;;;;;;12.05;9.30;;;17.20;70.10;;;;;;7390491;19;20134;-76